Latest Weather Observations for Bickley

IDW60801

Issued at 12:35 am WST Friday 31 October 2014 (issued every 30 minutes, with the page automatically refreshed every 10 minutes)

About weather observations | Map of weather stations | Latest weather observations for WA | Other Formats
Station Details ID: 009240 Name: BICKLEY Lat: -32.01 Lon: 116.14 Height: 384.0 m
Data from the previous 72 hours. | See also: Recent months at Bickley
Date/Time
WST
Temp
°C
App
Temp
°C
Dew
Point
Rel
Hum
%
Delta-T
°C
Wind Press
QNH
hPa
Press
MSL
hPa
Rain
since 9 am
mm
Dir
 
Spd
km/h
Gust
km/h
Spd
kts
Gust
kts
31/12:30am 13.0 - 12.1 94 0.5 - - - - - - - 0.0
31/12:00am 12.6 - 12.0 96 0.3 - - - - - - - 0.0
 
Date/Time
WST
Temp
°C
App
Temp
°C
Dew
Point
Rel
Hum
%
Delta-T
°C
Wind Press
QNH
hPa
Press
MSL
hPa
Rain
since 9 am
mm
Dir
 
Spd
km/h
Gust
km/h
Spd
kts
Gust
kts
30/11:30pm 13.1 - 12.2 94 0.5 - - - - - - - 0.0
30/11:00pm 13.3 - 12.0 92 0.7 - - - - - - - 0.0
30/10:30pm 13.3 - 11.7 90 0.9 - - - - - - - 0.0
30/10:00pm 13.6 - 11.5 87 1.1 - - - - - - - 0.0
30/09:30pm 13.8 - 11.8 88 1.1 - - - - - - - 0.0
30/09:00pm 13.8 - 11.3 85 1.4 - - - - - - - 0.0
30/08:30pm 14.1 - 10.3 78 2.0 - - - - - - - 0.0
30/08:00pm 14.3 - 9.5 73 2.5 - - - - - - - 0.0
30/07:30pm 14.4 - 10.2 76 2.2 - - - - - - - 0.0
30/07:00pm 14.4 - 10.6 78 2.0 - - - - - - - 0.0
30/06:30pm 14.7 - 9.7 72 2.6 - - - - - - - 0.0
30/06:00pm 14.8 - 10.0 73 2.5 - - - - - - - 0.0
30/05:30pm 15.0 - 9.4 69 2.9 - - - - - - - 0.0
30/05:00pm 15.1 - 9.5 69 2.9 - - - - - - - 0.0
30/04:30pm 15.8 - 10.1 69 3.0 - - - - - - - 0.0
30/04:00pm 17.0 - 10.4 65 3.6 - - - - - - - 0.0
30/03:30pm 16.9 - 10.5 66 3.5 - - - - - - - 0.0
30/03:00pm 18.2 - 10.6 61 4.2 - - - - - - - 0.0
30/02:30pm 18.6 - 10.9 61 4.2 - - - - - - - 0.0
30/02:00pm 18.6 - 10.9 61 4.2 - - - - - - - 0.0
30/01:30pm 18.8 - 11.9 64 3.9 - - - - - - - 0.0
30/01:00pm 17.9 - 11.9 68 3.4 - - - - - - - 0.0
30/12:30pm 17.7 - 13.0 74 2.7 - - - - - - - 0.0
30/12:00pm 16.3 - 13.2 82 1.8 - - - - - - - 0.0
30/11:30am 17.1 - 14.0 82 1.8 - - - - - - - 0.0
30/11:00am 16.3 - 13.8 85 1.4 - - - - - - - 0.0
30/10:30am 14.2 - 13.9 98 0.2 - - - - - - - 0.0
30/10:00am 13.8 - 13.6 99 0.1 - - - - - - - 0.0
30/09:30am 13.4 - 13.2 99 0.1 - - - - - - - 0.0
30/09:00am 13.1 - 12.9 99 0.1 - - - - - - - 1.8
30/08:30am 13.1 - 13.1 100 0.0 - - - - - - - 1.8
30/08:00am 12.9 - 12.9 100 0.0 - - - - - - - 1.8
30/07:30am 12.9 - 12.9 100 0.0 - - - - - - - 1.8
30/07:00am 12.8 - 12.8 100 0.0 - - - - - - - 1.8
30/06:30am 12.2 - 12.2 100 0.0 - - - - - - - 1.8
30/06:00am 11.7 - 11.5 99 0.1 - - - - - - - 1.8
30/05:30am 11.4 - 11.2 99 0.1 - - - - - - - 1.8
30/05:00am 11.7 - 11.5 99 0.1 - - - - - - - 1.8
30/04:30am 11.8 - 11.6 99 0.1 - - - - - - - 1.8
30/04:00am 11.9 - 11.7 99 0.1 - - - - - - - 1.8
30/03:30am 12.2 - 12.0 99 0.1 - - - - - - - 1.8
30/03:00am 12.9 - 12.7 99 0.1 - - - - - - - 1.8
30/02:30am 13.1 - 12.9 99 0.1 - - - - - - - 1.8
30/02:00am 13.7 - 13.5 99 0.1 - - - - - - - 1.8
30/01:30am 14.0 - 13.8 99 0.1 - - - - - - - 1.8
30/01:00am 14.3 - 14.1 99 0.1 - - - - - - - 1.8
30/12:30am 14.5 - 14.3 99 0.1 - - - - - - - 1.8
30/12:00am 14.7 - 14.5 99 0.1 - - - - - - - 1.8
 
Date/Time
WST
Temp
°C
App
Temp
°C
Dew
Point
Rel
Hum
%
Delta-T
°C
Wind Press
QNH
hPa
Press
MSL
hPa
Rain
since 9 am
mm
Dir
 
Spd
km/h
Gust
km/h
Spd
kts
Gust
kts
29/11:30pm 15.0 - 14.8 99 0.1 - - - - - - - 1.8
29/11:00pm 15.2 - 14.9 98 0.2 - - - - - - - 1.8
29/10:30pm 15.1 - 14.9 99 0.1 - - - - - - - 1.8
29/10:00pm 15.2 - 15.0 99 0.1 - - - - - - - 1.8
29/09:30pm 15.4 - 15.2 99 0.1 - - - - - - - 1.8
29/09:00pm 15.9 - 15.4 97 0.3 - - - - - - - 1.8
29/08:30pm 16.8 - 15.7 93 0.7 - - - - - - - 1.8
29/08:00pm 17.4 - 15.6 89 1.1 - - - - - - - 1.8
29/07:30pm 18.2 - 16.2 88 1.2 - - - - - - - 1.8
29/07:00pm 18.9 - 16.5 86 1.5 - - - - - - - 1.8
29/06:30pm 19.7 - 16.7 83 1.8 - - - - - - - 1.8
29/06:00pm 20.9 - 16.7 77 2.6 - - - - - - - 1.8
29/05:30pm 21.6 - 17.2 76 2.7 - - - - - - - 1.6
29/05:00pm 21.1 - 18.5 85 1.7 - - - - - - - 1.6
29/04:30pm 20.3 - 18.4 89 1.2 - - - - - - - 1.6
29/04:00pm 24.1 - 16.9 64 4.5 - - - - - - - 0.4
29/03:30pm 27.4 - 15.7 48 7.3 - - - - - - - 0.0
29/03:00pm 27.6 - 14.9 45 7.8 - - - - - - - 0.0
29/02:30pm 27.3 - 16.0 50 7.1 - - - - - - - 0.0
29/02:00pm 27.6 - 16.6 51 6.9 - - - - - - - 0.0
29/01:30pm 27.3 - 16.9 53 6.6 - - - - - - - 0.0
29/01:00pm 26.8 - 16.4 53 6.5 - - - - - - - 0.0
29/12:30pm 26.7 - 16.6 54 6.4 - - - - - - - 0.0
29/12:00pm 26.1 - 15.5 52 6.5 - - - - - - - 0.0
29/11:30am 25.8 - 14.6 50 6.8 - - - - - - - 0.0
29/11:00am 24.3 - 14.4 54 6.0 - - - - - - - 0.0
29/10:30am 23.5 - 15.5 60 4.9 - - - - - - - 0.0
29/10:00am 23.3 - 15.1 60 5.0 - - - - - - - 0.0
29/09:30am 23.2 - 15.3 61 4.8 - - - - - - - 0.0
29/09:00am 22.0 - 14.4 62 4.5 - - - - - - - 0.0
29/08:30am 21.2 - 14.1 64 4.2 - - - - - - - 0.0
29/08:00am 19.9 - 13.6 67 3.7 - - - - - - - 0.0
29/07:30am 17.9 - 13.2 74 2.7 - - - - - - - 0.0
29/07:00am 16.5 - 12.5 77 2.2 - - - - - - - 0.0
29/06:30am 15.8 - 12.0 78 2.1 - - - - - - - 0.0
29/06:00am 15.9 - 11.7 76 2.3 - - - - - - - 0.0
29/05:30am 15.6 - 11.2 75 2.4 - - - - - - - 0.0
29/05:00am 16.2 - 11.2 72 2.7 - - - - - - - 0.0
29/04:30am 16.8 - 10.9 68 3.2 - - - - - - - 0.0
29/04:00am 17.1 - 10.7 66 3.5 - - - - - - - 0.0
29/03:30am 17.6 - 10.5 63 3.9 - - - - - - - 0.0
29/03:00am 17.8 - 10.4 62 4.0 - - - - - - - 0.0
29/02:30am 18.1 - 10.2 60 4.3 - - - - - - - 0.0
29/02:00am 18.6 - 10.2 58 4.6 - - - - - - - 0.0
29/01:30am 19.2 - 9.7 54 5.1 - - - - - - - 0.0
29/01:00am 19.1 - 10.1 56 4.9 - - - - - - - 0.0
29/12:30am 19.2 - 10.2 56 4.9 - - - - - - - 0.0
29/12:00am 19.4 - 10.7 57 4.8 - - - - - - - 0.0
 
Date/Time
WST
Temp
°C
App
Temp
°C
Dew
Point
Rel
Hum
%
Delta-T
°C
Wind Press
QNH
hPa
Press
MSL
hPa
Rain
since 9 am
mm
Dir
 
Spd
km/h
Gust
km/h
Spd
kts
Gust
kts
28/11:30pm 19.9 - 11.1 57 4.9 - - - - - - - 0.0
28/11:00pm 20.3 - 11.8 58 4.8 - - - - - - - 0.0
28/10:30pm 20.6 - 12.3 59 4.7 - - - - - - - 0.0
28/10:00pm 21.0 - 13.2 61 4.5 - - - - - - - 0.0
28/09:30pm 20.9 - 14.3 66 3.9 - - - - - - - 0.0
28/09:00pm 20.5 - 15.7 74 2.9 - - - - - - - 0.0
28/08:30pm 20.8 - 15.8 73 3.0 - - - - - - - 0.0
28/08:00pm 21.1 - 15.9 72 3.2 - - - - - - - 0.0
28/07:30pm 21.5 - 15.3 68 3.7 - - - - - - - 0.0
28/07:00pm 21.8 - 14.4 63 4.4 - - - - - - - 0.0
28/06:30pm 22.9 - 13.7 56 5.4 - - - - - - - 0.0
28/06:00pm 24.2 - 13.4 51 6.4 - - - - - - - 0.0
28/05:30pm 25.9 - 13.4 46 7.5 - - - - - - - 0.0
28/05:00pm 26.2 - 13.7 46 7.5 - - - - - - - 0.0
28/04:30pm 25.9 - 14.1 48 7.1 - - - - - - - 0.0
28/04:00pm 26.8 - 13.2 43 8.1 - - - - - - - 0.0
28/03:30pm 26.6 - 13.0 43 8.1 - - - - - - - 0.0
28/03:00pm 26.8 - 11.3 38 9.0 - - - - - - - 0.0
28/02:30pm 26.5 - 12.9 43 8.1 - - - - - - - 0.0
28/02:00pm 25.9 - 11.6 40 8.3 - - - - - - - 0.0
28/01:30pm 25.9 - 12.7 44 7.8 - - - - - - - 0.0
28/01:00pm 25.4 - 13.3 47 7.2 - - - - - - - 0.0
28/12:30pm 25.2 - 13.1 47 7.2 - - - - - - - 0.0
28/12:00pm 25.1 - 12.7 46 7.3 - - - - - - - 0.0
28/11:30am 24.1 - 12.4 48 6.8 - - - - - - - 0.0
28/11:00am 23.7 - 13.3 52 6.1 - - - - - - - 0.0
28/10:30am 22.3 - 12.0 52 5.9 - - - - - - - 0.0
28/10:00am 20.7 - 11.9 57 5.0 - - - - - - - 0.0
28/09:30am 19.4 - 11.2 59 4.6 - - - - - - - 0.0
28/09:00am 17.8 - 10.9 64 3.8 - - - - - - - 0.0
28/08:30am 16.6 - 10.7 68 3.2 - - - - - - - 0.0
28/08:00am 14.7 - 9.9 73 2.5 - - - - - - - 0.0
28/07:30am 13.2 - 9.5 78 1.9 - - - - - - - 0.0
28/07:00am 12.5 - 9.3 81 1.7 - - - - - - - 0.0
28/06:30am 12.1 - 9.1 82 1.5 - - - - - - - 0.0
28/06:00am 11.4 - 9.0 85 1.2 - - - - - - - 0.0
28/05:30am 11.0 - 8.6 85 1.2 - - - - - - - 0.0
28/05:00am 11.3 - 8.7 84 1.3 - - - - - - - 0.0
28/04:30am 11.7 - 8.7 82 1.5 - - - - - - - 0.0
28/04:00am 12.0 - 8.7 80 1.7 - - - - - - - 0.0
28/03:30am 12.3 - 8.6 78 1.9 - - - - - - - 0.0
28/03:00am 12.7 - 8.2 74 2.3 - - - - - - - 0.0
28/02:30am 13.2 - 7.9 70 2.7 - - - - - - - 0.0
28/02:00am 13.9 - 7.9 67 3.0 - - - - - - - 0.0
28/01:30am 14.4 - 7.7 64 3.4 - - - - - - - 0.0
28/01:00am 14.7 - 7.5 62 3.6 - - - - - - - 0.0

Other Formats:

Comma delimited format used in spreadsheet applications
http://www.bom.gov.au/fwo/IDW60801/IDW60801.95610.axf

JavaScript Object Notation format (JSON) in row-major order
http://www.bom.gov.au/fwo/IDW60801/IDW60801.95610.json